createdAt,value
2023-03-24T00:00:29.202Z,13.99
2023-03-24T00:05:30.999Z,13.86
2023-03-24T00:10:34.388Z,13.83
2023-03-24T00:15:36.211Z,13.80
2023-03-24T00:20:37.573Z,13.78
2023-03-24T00:25:39.989Z,13.83
2023-03-24T00:30:41.680Z,13.86
2023-03-24T00:35:44.731Z,13.97
2023-03-24T00:40:48.432Z,14.06
2023-03-24T00:45:49.794Z,14.16
2023-03-24T00:50:52.027Z,14.20
2023-03-24T00:55:53.767Z,14.29
2023-03-24T01:00:57.897Z,14.27
2023-03-24T01:06:04.018Z,14.23
2023-03-24T01:11:06.556Z,14.28
2023-03-24T01:16:08.764Z,14.34
2023-03-24T01:21:11.966Z,14.37
2023-03-24T01:26:13.310Z,14.41
2023-03-24T01:31:14.717Z,14.48
2023-03-24T01:36:16.216Z,14.54
2023-03-24T01:41:17.643Z,14.58
2023-03-24T01:46:20.634Z,14.57
2023-03-24T01:51:37.304Z,14.55
2023-03-24T01:56:47.458Z,14.52
2023-03-24T02:01:49.542Z,14.53
2023-03-24T02:06:51.188Z,14.54
2023-03-24T02:11:52.828Z,14.57
2023-03-24T02:17:15.106Z,14.55
2023-03-24T02:22:53.514Z,14.47
2023-03-24T02:28:17.770Z,14.38
2023-03-24T02:33:58.009Z,14.43
2023-03-24T02:39:21.540Z,14.39
2023-03-24T02:44:56.738Z,14.40
2023-03-24T02:50:18.358Z,14.39
2023-03-24T02:55:31.405Z,14.39
2023-03-24T03:00:39.919Z,14.39
2023-03-24T03:05:59.282Z,14.29
2023-03-24T03:11:03.659Z,14.25
2023-03-24T03:16:15.944Z,14.13
2023-03-24T03:21:20.895Z,14.07
2023-03-24T03:26:26.683Z,14.06
2023-03-24T03:31:44.913Z,14.02
2023-03-24T03:36:53.759Z,13.98
2023-03-24T03:41:56.670Z,14.00
2023-03-24T03:46:58.543Z,14.02
2023-03-24T03:51:59.949Z,13.99
2023-03-24T03:57:01.739Z,13.95
2023-03-24T04:02:34.709Z,13.96
2023-03-24T04:07:41.499Z,13.97
2023-03-24T04:13:00.551Z,13.89
2023-03-24T04:18:17.047Z,13.87
2023-03-24T04:23:44.522Z,13.84
2023-03-24T04:29:17.795Z,13.72
2023-03-24T04:34:29.294Z,13.61
2023-03-24T04:39:38.728Z,13.48
2023-03-24T04:44:41.638Z,13.33
2023-03-24T04:49:43.086Z,13.34
2023-03-24T04:54:44.400Z,13.37
2023-03-24T04:59:46.103Z,13.46
2023-03-24T05:04:47.445Z,13.50
2023-03-24T05:09:48.771Z,13.53
2023-03-24T05:14:50.222Z,13.58
2023-03-24T05:19:51.738Z,13.60
2023-03-24T05:24:53.074Z,13.62
2023-03-24T05:29:54.433Z,13.68
2023-03-24T05:34:55.884Z,13.74
2023-03-24T05:46:12.894Z,13.88
2023-03-24T05:51:14.257Z,13.97
2023-03-24T05:56:15.706Z,14.09
2023-03-24T06:01:18.265Z,14.07
2023-03-24T06:06:19.746Z,14.12
2023-03-24T06:11:21.226Z,14.23
2023-03-24T06:16:23.907Z,14.27
2023-03-24T06:21:32.475Z,14.32
2023-03-24T06:26:35.429Z,14.36
2023-03-24T06:31:37.320Z,14.42
2023-03-24T06:36:38.790Z,14.45
2023-03-24T06:41:40.552Z,14.53
2023-03-24T06:46:42.035Z,14.62
2023-03-24T06:51:43.602Z,14.70
2023-03-24T06:56:45.069Z,14.80
2023-03-24T07:01:49.408Z,14.85
2023-03-24T07:07:08.590Z,14.80
2023-03-24T07:12:14.413Z,14.60
2023-03-24T07:17:16.258Z,14.65
2023-03-24T07:22:17.697Z,14.79
2023-03-24T07:27:19.030Z,14.86
2023-03-24T07:32:20.416Z,14.90
2023-03-24T07:37:21.766Z,14.93
2023-03-24T07:42:23.133Z,15.01
2023-03-24T07:47:24.582Z,14.94
2023-03-24T07:52:25.950Z,14.61
2023-03-24T07:57:27.380Z,14.48
2023-03-24T08:02:28.833Z,14.44
2023-03-24T08:07:30.164Z,14.39
2023-03-24T08:12:31.846Z,14.42
2023-03-24T08:17:33.792Z,14.55
2023-03-24T08:22:37.677Z,14.62
2023-03-24T08:27:40.115Z,14.69
2023-03-24T08:32:56.374Z,14.82
2023-03-24T08:38:01.662Z,14.88
2023-03-24T08:43:08.500Z,14.87
2023-03-24T08:48:10.492Z,14.88
2023-03-24T08:53:12.383Z,14.63
2023-03-24T08:58:20.910Z,14.44
2023-03-24T09:03:22.818Z,14.41
2023-03-24T09:08:25.256Z,14.47
2023-03-24T09:13:26.580Z,14.47
2023-03-24T09:18:29.041Z,14.48
2023-03-24T09:23:31.537Z,14.40
2023-03-24T09:28:33.095Z,14.23
2023-03-24T09:33:34.931Z,14.09
2023-03-24T09:38:36.390Z,14.07
2023-03-24T09:43:44.446Z,13.93
2023-03-24T09:48:55.037Z,13.62
2023-03-24T09:54:18.092Z,13.24
2023-03-24T09:59:40.001Z,12.74
2023-03-24T10:04:41.637Z,12.69
2023-03-24T10:09:46.268Z,12.66
2023-03-24T10:14:57.777Z,12.64
2023-03-24T10:20:25.681Z,12.68
2023-03-24T10:25:43.180Z,12.67
2023-03-24T10:30:48.328Z,12.55
2023-03-24T10:36:02.576Z,12.61
2023-03-24T10:41:04.383Z,12.77
2023-03-24T10:46:06.392Z,12.81
2023-03-24T10:51:17.986Z,13.14
2023-03-24T10:56:41.723Z,13.14
2023-03-24T11:01:43.206Z,13.13
2023-03-24T11:07:02.634Z,13.35
2023-03-24T11:12:04.357Z,13.33
2023-03-24T11:17:16.812Z,13.50
2023-03-24T11:22:18.560Z,13.53
2023-03-24T11:27:20.267Z,13.82
2023-03-24T11:32:27.827Z,14.12
2023-03-24T11:37:34.708Z,14.19
2023-03-24T11:42:57.691Z,14.30
2023-03-24T11:48:01.139Z,14.62
2023-03-24T11:53:15.972Z,14.79
2023-03-24T11:58:36.904Z,15.15
2023-03-24T12:04:20.754Z,15.30
2023-03-24T12:09:53.954Z,15.61
2023-03-24T12:15:28.152Z,15.63
2023-03-24T12:20:44.928Z,15.93
2023-03-24T12:26:05.100Z,16.16
2023-03-24T12:31:38.821Z,16.57
2023-03-24T12:36:54.281Z,16.60
2023-03-24T12:42:15.740Z,16.87
2023-03-24T12:47:36.094Z,17.33
2023-03-24T12:53:08.222Z,17.35
2023-03-24T12:58:20.733Z,17.84
2023-03-24T13:03:30.350Z,17.94
2023-03-24T13:08:32.930Z,18.03
2023-03-24T13:13:40.828Z,18.01
2023-03-24T13:19:00.390Z,18.22
2023-03-24T13:24:15.383Z,18.24
2023-03-24T13:29:48.377Z,18.30
2023-03-24T13:35:00.246Z,18.45
2023-03-24T13:40:07.812Z,18.74
2023-03-24T13:45:27.089Z,18.91
2023-03-24T13:50:32.276Z,18.99
2023-03-24T13:55:38.226Z,19.19
2023-03-24T14:01:06.349Z,19.27
2023-03-24T14:06:09.687Z,19.62
2023-03-24T14:11:38.444Z,20.08
2023-03-24T14:16:44.305Z,20.08
2023-03-24T14:21:52.550Z,20.21
2023-03-24T14:26:54.096Z,20.34
2023-03-24T14:32:17.296Z,20.69
2023-03-24T14:37:22.175Z,20.98
2023-03-24T14:42:32.362Z,20.85
2023-03-24T14:47:38.001Z,20.82
2023-03-24T14:52:51.070Z,20.52
2023-03-24T14:57:56.314Z,19.99
2023-03-24T15:03:41.276Z,19.86
2023-03-24T15:08:54.291Z,19.60
2023-03-24T15:13:57.481Z,19.56
2023-03-24T15:19:02.501Z,19.56
2023-03-24T15:24:27.089Z,19.60
2023-03-24T15:29:28.453Z,19.50
2023-03-24T15:34:47.246Z,19.67
2023-03-24T15:39:59.164Z,19.50
2023-03-24T15:45:21.050Z,19.44
2023-03-24T15:50:35.492Z,19.27
2023-03-24T15:55:37.932Z,19.20
2023-03-24T16:00:42.362Z,19.08
2023-03-24T16:05:48.680Z,19.01
2023-03-24T16:11:07.069Z,18.87
2023-03-24T16:16:24.180Z,18.77
2023-03-24T16:21:28.261Z,18.46
2023-03-24T16:26:32.360Z,18.22
2023-03-24T16:31:35.520Z,18.16
2023-03-24T16:36:37.104Z,18.17
2023-03-24T16:41:38.505Z,18.16
2023-03-24T16:46:41.081Z,18.06
2023-03-24T16:51:43.204Z,17.88
2023-03-24T16:56:44.854Z,17.81
2023-03-24T17:01:47.710Z,17.89
2023-03-24T17:06:55.124Z,17.72
2023-03-24T17:11:58.485Z,17.63
2023-03-24T17:17:02.791Z,17.62
2023-03-24T17:22:06.840Z,17.44
2023-03-24T17:27:26.103Z,17.28
2023-03-24T17:32:32.261Z,17.24
2023-03-24T17:37:33.661Z,17.14
2023-03-24T17:42:35.456Z,17.00
2023-03-24T17:47:36.847Z,16.92
2023-03-24T17:52:48.168Z,16.79
2023-03-24T17:57:49.590Z,16.69
2023-03-24T18:02:51.125Z,16.53
2023-03-24T18:07:52.678Z,16.43
2023-03-24T18:12:54.565Z,16.33
2023-03-24T18:17:56.162Z,16.23
2023-03-24T18:22:57.998Z,16.11
2023-03-24T18:27:59.453Z,15.99
2023-03-24T18:33:01.214Z,15.93
2023-03-24T18:38:02.711Z,15.88
2023-03-24T18:43:04.267Z,15.75
2023-03-24T18:48:06.314Z,15.75
2023-03-24T18:53:07.754Z,15.70
2023-03-24T18:58:15.139Z,15.63
2023-03-24T19:03:17.291Z,15.56
2023-03-24T19:08:22.504Z,15.53
2023-03-24T19:13:23.993Z,15.49
2023-03-24T19:18:25.868Z,15.47
2023-03-24T19:23:28.318Z,14.99
2023-03-24T19:28:32.108Z,13.70
2023-03-24T19:33:33.495Z,13.35
2023-03-24T19:38:36.030Z,13.15
2023-03-24T19:43:37.844Z,13.01
2023-03-24T19:48:39.264Z,12.93
2023-03-24T19:53:40.873Z,12.92
2023-03-24T19:58:42.231Z,12.96
2023-03-24T20:03:43.846Z,12.98
2023-03-24T20:08:45.440Z,12.98
2023-03-24T20:13:46.768Z,12.98
2023-03-24T20:18:48.238Z,12.85
2023-03-24T20:23:50.376Z,12.70
2023-03-24T20:28:51.917Z,12.66
2023-03-24T20:33:53.282Z,12.59
2023-03-24T20:38:59.088Z,12.54
2023-03-24T20:44:00.723Z,12.49
2023-03-24T20:49:02.145Z,12.42
2023-03-24T20:54:05.573Z,12.33
2023-03-24T20:59:07.306Z,12.23
2023-03-24T21:04:10.003Z,12.12
2023-03-24T21:09:11.642Z,12.01
2023-03-24T21:14:12.973Z,11.90
2023-03-24T21:19:14.543Z,11.86
2023-03-24T21:24:17.113Z,11.70
2023-03-24T21:29:18.628Z,11.64
2023-03-24T21:34:19.984Z,11.66
2023-03-24T21:39:21.699Z,11.69
2023-03-24T21:44:23.275Z,11.43
2023-03-24T21:49:24.649Z,11.35
2023-03-24T21:54:26.750Z,11.64
2023-03-24T21:59:28.567Z,11.78
2023-03-24T22:04:29.886Z,12.08
2023-03-24T22:09:31.196Z,12.09
2023-03-24T22:14:32.509Z,12.10
2023-03-24T22:19:33.975Z,12.01
2023-03-24T22:24:35.497Z,11.95
2023-03-24T22:29:37.246Z,11.93
2023-03-24T22:34:38.569Z,11.91
2023-03-24T22:39:39.890Z,11.89
2023-03-24T22:44:41.905Z,11.88
2023-03-24T22:49:43.298Z,11.90
2023-03-24T22:54:44.680Z,11.96
2023-03-24T22:59:46.091Z,11.91
2023-03-24T23:04:48.248Z,11.88
2023-03-24T23:09:49.907Z,11.90
2023-03-24T23:14:54.196Z,11.92
2023-03-24T23:19:55.719Z,11.77
2023-03-24T23:25:01.936Z,11.19
2023-03-24T23:30:06.983Z,11.10
2023-03-24T23:35:09.256Z,10.71
2023-03-24T23:40:12.867Z,10.65
2023-03-24T23:45:19.194Z,10.46
2023-03-24T23:50:21.069Z,10.37
2023-03-24T23:55:22.691Z,10.34
